Time;durP1;ratioP1;P1;durP2;ratioP2;P2;SDS_P1;SDS_P2;PMS_P1;PMS_P2;Temp;Humidity;BMP_temperature;BMP_pressure;BME280_temperature;BME280_humidity;BME280_pressure;Samples;Min_cycle;Max_cycle;Signal;HPM_P1;HPM_P2
2022/11/28 00:02:11;;;;;;;5.15;4.85;;;;;;;7.23;100.00;101007.94;5205618;28;20033;-66
2022/11/28 00:04:41;;;;;;;5.38;4.97;;;;;;;7.26;100.00;100999.41;5222122;28;20026;-68
2022/11/28 00:07:11;;;;;;;4.55;4.22;;;;;;;7.27;100.00;101006.41;5222768;28;20041;-67
2022/11/28 00:09:42;;;;;;;4.32;4.03;;;;;;;7.27;100.00;100994.84;5222916;28;20383;-68
2022/11/28 00:12:12;;;;;;;4.68;4.38;;;;;;;7.26;100.00;100985.97;5206446;28;20030;-67
2022/11/28 00:14:43;;;;;;;4.57;4.38;;;;;;;7.28;100.00;100993.81;5222862;28;20030;-67
2022/11/28 00:17:13;;;;;;;5.18;4.88;;;;;;;7.29;100.00;100982.00;5206414;28;20022;-67
2022/11/28 00:19:44;;;;;;;5.05;4.53;;;;;;;7.11;100.00;100945.34;5222953;28;20056;-67
2022/11/28 00:22:14;;;;;;;3.78;3.67;;;;;;;7.28;100.00;100972.31;5222590;28;20083;-67
2022/11/28 00:24:44;;;;;;;5.25;4.93;;;;;;;7.29;100.00;100972.09;5205815;28;20040;-67
2022/11/28 00:27:15;;;;;;;4.22;4.00;;;;;;;7.25;100.00;100973.59;5222001;28;20053;-67
2022/11/28 00:29:45;;;;;;;4.78;4.40;;;;;;;7.21;100.00;100972.44;5204461;28;20032;-67
2022/11/28 00:32:16;;;;;;;5.55;5.25;;;;;;;7.18;100.00;100975.59;5204832;28;20040;-67
2022/11/28 00:34:46;;;;;;;5.30;5.00;;;;;;;7.15;100.00;100968.00;5220939;28;20029;-66
2022/11/28 00:37:17;;;;;;;8.57;4.80;;;;;;;7.15;100.00;100959.13;5213523;22;20041;-68
2022/11/28 00:39:47;;;;;;;5.50;5.13;;;;;;;7.13;100.00;100953.97;5182046;28;20568;-69
2022/11/28 00:42:19;;;;;;;4.97;4.70;;;;;;;7.12;100.00;100957.72;5203048;28;20071;-68
2022/11/28 00:44:50;;;;;;;5.38;4.97;;;;;;;6.95;100.00;100937.94;5206858;28;20036;-68
2022/11/28 00:47:20;;;;;;;5.32;4.97;;;;;;;7.10;100.00;100959.81;5223396;28;20037;-68
2022/11/28 00:49:51;;;;;;;6.05;5.68;;;;;;;7.09;100.00;100964.34;5207817;28;20333;-67
2022/11/28 00:52:21;;;;;;;4.47;4.18;;;;;;;7.09;100.00;100963.53;5223395;28;20044;-67
2022/11/28 00:54:52;;;;;;;4.90;4.57;;;;;;;7.09;100.00;100963.53;5206889;28;20033;-67
2022/11/28 00:57:22;;;;;;;4.43;4.22;;;;;;;7.08;100.00;100967.28;5206628;28;20036;-67
2022/11/28 00:59:53;;;;;;;5.45;5.15;;;;;;;7.07;100.00;100971.00;5206392;28;20090;-67
2022/11/28 01:02:23;;;;;;;4.55;4.25;;;;;;;7.05;100.00;100965.03;5223106;28;20029;-67
2022/11/28 01:04:53;;;;;;;4.95;4.65;;;;;;;7.00;100.00;100960.34;5206595;28;20021;-67
2022/11/28 01:07:27;;;;;;;6.05;5.38;;;;;;;7.00;100.00;100965.72;5223133;28;20021;-67
2022/11/28 01:09:57;;;;;;;5.55;5.20;;;;;;;7.02;100.00;100966.31;5222589;28;20064;-67
2022/11/28 01:12:28;;;;;;;6.70;5.40;;;;;;;6.99;100.00;100965.97;5223253;28;20053;-68
2022/11/28 01:14:58;;;;;;;5.95;5.57;;;;;;;6.97;100.00;100962.69;5223025;28;20109;-68
2022/11/28 01:17:29;;;;;;;6.25;5.82;;;;;;;6.49;100.00;100887.63;5206428;28;20033;-68
2022/11/28 01:19:59;;;;;;;5.32;5.03;;;;;;;6.92;100.00;100963.41;5205945;28;20053;-68
2022/11/28 01:22:30;;;;;;;5.07;4.78;;;;;;;6.89;100.00;100955.78;5205847;28;20033;-69
2022/11/28 01:25:00;;;;;;;6.78;6.28;;;;;;;6.88;100.00;100956.84;5222753;28;20076;-68
2022/11/28 01:27:31;;;;;;;6.70;6.22;;;;;;;6.86;100.00;100958.94;5206319;28;20025;-68
2022/11/28 01:30:01;;;;;;;5.45;5.15;;;;;;;6.84;100.00;100968.25;5205943;28;20086;-68
2022/11/28 01:32:31;;;;;;;5.45;4.13;;;;;;;6.82;100.00;100956.94;5206067;28;20049;-68
2022/11/28 01:35:02;;;;;;;5.72;5.35;;;;;;;6.81;100.00;100958.78;5205812;28;20029;-68
2022/11/28 01:37:33;;;;;;;5.30;4.90;;;;;;;6.80;100.00;100959.84;5205778;28;20025;-68
2022/11/28 01:40:04;;;;;;;7.90;5.38;;;;;;;6.79;100.00;100963.56;5205519;28;20036;-68
2022/11/28 01:42:34;;;;;;;5.07;4.78;;;;;;;6.78;100.00;100960.06;5205767;28;20025;-67
2022/11/28 01:45:26;;;;;;;8.10;6.13;;;;;;;6.77;100.00;100954.94;5205871;28;20502;-68
2022/11/28 01:48:00;;;;;;;5.25;4.95;;;;;;;6.77;100.00;100957.63;5205757;28;20033;-68
2022/11/28 01:50:32;;;;;;;6.40;5.60;;;;;;;6.75;100.00;100951.66;5205349;28;20032;-68
2022/11/28 01:53:07;;;;;;;5.97;5.57;;;;;;;6.75;100.00;100954.34;5205564;28;20064;-67
2022/11/28 01:55:54;;;;;;;5.70;5.30;;;;;;;6.74;100.00;100955.38;5205165;28;20033;-68
2022/11/28 01:58:26;;;;;;;4.93;4.63;;;;;;;6.70;100.00;100952.34;5222293;28;20494;-67
2022/11/28 02:00:56;;;;;;;6.13;5.68;;;;;;;6.50;100.00;100922.28;5205197;28;20036;-67
2022/11/28 02:03:37;;;;;;;5.10;4.82;;;;;;;6.70;100.00;100951.50;5221994;28;20116;-67
2022/11/28 02:06:09;;;;;;;4.78;4.57;;;;;;;6.68;100.00;100949.06;5205358;28;20037;-67
2022/11/28 02:08:39;;;;;;;5.22;4.68;;;;;;;6.67;100.00;100952.78;5205299;28;20087;-66
2022/11/28 02:11:41;;;;;;;5.95;5.55;;;;;;;6.66;100.00;100951.16;5221325;28;20489;-67
2022/11/28 02:14:32;;;;;;;5.13;4.55;;;;;;;6.64;100.00;100945.19;5206513;28;20505;-68
2022/11/28 02:17:10;;;;;;;6.20;5.70;;;;;;;6.63;100.00;100943.59;5221527;28;20029;-67
2022/11/28 02:19:59;;;;;;;6.07;5.68;;;;;;;6.62;100.00;100941.94;5221675;28;20497;-67
2022/11/28 02:22:43;;;;;;;5.65;5.35;;;;;;;6.60;100.00;100944.03;5206325;28;20036;-67
2022/11/28 02:25:23;;;;;;;6.00;5.55;;;;;;;6.60;100.00;100945.91;5205052;28;20516;-67
2022/11/28 02:27:53;;;;;;;6.30;5.95;;;;;;;6.60;100.00;100935.16;5221754;28;20065;-67
2022/11/28 02:30:44;;;;;;;6.00;5.60;;;;;;;6.58;100.00;100938.06;5206137;28;20489;-67
2022/11/28 02:33:51;;;;;;;6.43;5.90;;;;;;;6.57;100.00;100933.75;5221718;28;20025;-67
2022/11/28 02:36:30;;;;;;;6.03;5.72;;;;;;;6.57;100.00;100939.13;5200965;28;20559;-67
2022/11/28 02:39:27;;;;;;;5.20;4.80;;;;;;;6.56;100.00;100940.16;5221452;28;20041;-67
2022/11/28 02:42:11;;;;;;;6.18;5.60;;;;;;;6.55;100.00;100943.88;5204357;28;20362;-66
2022/11/28 02:44:51;;;;;;;7.38;6.88;;;;;;;6.55;100.00;100938.53;5204650;28;20025;-66
2022/11/28 02:47:30;;;;;;;7.85;5.97;;;;;;;6.56;100.00;100936.66;5221640;28;20288;-66
2022/11/28 02:50:07;;;;;;;5.38;4.97;;;;;;;6.55;100.00;100933.16;5220843;28;20025;-67
2022/11/28 02:52:48;;;;;;;7.65;6.45;;;;;;;6.54;100.00;100930.69;5221035;28;20036;-67
2022/11/28 02:55:19;;;;;;;4.75;4.50;;;;;;;6.54;100.00;100933.38;5204375;28;20087;-66
2022/11/28 02:57:52;;;;;;;6.30;5.78;;;;;;;6.54;100.00;100939.56;5204354;28;20032;-68
2022/11/28 03:00:36;;;;;;;7.80;6.30;;;;;;;6.52;100.00;100930.94;5220578;28;20089;-67
2022/11/28 03:03:15;;;;;;;5.95;5.55;;;;;;;6.53;100.00;100932.56;5204281;28;20401;-68
2022/11/28 03:05:56;;;;;;;5.47;5.13;;;;;;;6.53;100.00;100926.38;5220319;28;20021;-66
2022/11/28 03:08:53;;;;;;;7.00;5.47;;;;;;;6.53;100.00;100934.44;5204316;28;20065;-67
2022/11/28 03:11:52;;;;;;;6.80;5.70;;;;;;;6.53;100.00;100943.28;5220393;28;20021;-67
2022/11/28 03:14:55;;;;;;;6.53;5.95;;;;;;;6.53;100.00;100934.44;5220861;28;20425;-67
2022/11/28 03:17:30;;;;;;;7.32;6.70;;;;;;;6.52;100.00;100947.03;5220632;28;20431;-68
2022/11/28 03:20:16;;;;;;;7.43;6.82;;;;;;;6.52;100.00;100936.28;5220232;28;20116;-68
2022/11/28 03:23:24;;;;;;;6.13;5.72;;;;;;;6.52;100.00;100938.97;5220680;28;20464;-68
2022/11/28 03:26:08;;;;;;;6.93;6.53;;;;;;;6.52;100.00;100933.59;5205284;28;20025;-68
2022/11/28 03:28:51;;;;;;;7.13;6.63;;;;;;;6.52;100.00;100941.66;5220687;28;20498;-68
2022/11/28 03:31:30;;;;;;;6.72;6.13;;;;;;;6.51;100.00;100931.97;5205251;28;20490;-68
2022/11/28 03:34:05;;;;;;;7.05;6.65;;;;;;;6.53;100.00;100932.56;5220775;28;20037;-68
2022/11/28 03:36:50;;;;;;;5.68;5.35;;;;;;;6.52;100.00;100933.59;5204210;28;20061;-67
2022/11/28 03:39:26;;;;;;;7.00;6.60;;;;;;;6.52;100.00;100933.59;5220839;28;20056;-67
2022/11/28 03:42:14;;;;;;;6.72;6.10;;;;;;;6.51;100.00;100934.66;5205256;28;20022;-67
2022/11/28 03:44:55;;;;;;;8.25;7.45;;;;;;;6.53;100.00;100934.44;5204280;28;20524;-67
2022/11/28 03:47:31;;;;;;;8.18;6.95;;;;;;;6.54;100.00;100939.56;5204228;28;20048;-67
2022/11/28 03:50:07;;;;;;;8.13;7.43;;;;;;;6.54;100.00;100933.38;5220454;28;20021;-67
2022/11/28 03:52:48;;;;;;;7.90;7.30;;;;;;;6.52;100.00;100925.56;5203857;28;20029;-66
2022/11/28 03:55:44;;;;;;;7.88;7.15;;;;;;;6.55;100.00;100927.78;5204125;28;20037;-67
2022/11/28 03:58:26;;;;;;;7.57;7.07;;;;;;;6.56;100.00;100926.75;5203646;28;20033;-67
2022/11/28 04:01:19;;;;;;;6.72;6.30;;;;;;;6.57;100.00;100927.56;5219831;28;20132;-67
2022/11/28 04:03:57;;;;;;;7.90;7.25;;;;;;;6.47;100.00;100911.19;5220374;28;20545;-68
2022/11/28 04:06:45;;;;;;;8.15;7.35;;;;;;;6.54;100.00;100931.53;5220154;28;20025;-68
2022/11/28 04:09:21;;;;;;;6.47;6.07;;;;;;;6.57;100.00;100927.56;5220287;28;20025;-68
2022/11/28 04:12:03;;;;;;;6.45;5.90;;;;;;;6.32;100.00;100898.19;5203228;28;20025;-67
2022/11/28 04:14:46;;;;;;;8.27;7.78;;;;;;;6.59;100.00;100939.72;5203087;28;20389;-68
2022/11/28 04:17:35;;;;;;;8.07;7.57;;;;;;;6.60;100.00;100938.66;5205051;28;20493;-67
2022/11/28 04:20:14;;;;;;;7.78;7.28;;;;;;;6.59;100.00;100936.22;5207386;28;20175;-67
2022/11/28 04:22:51;;;;;;;6.73;6.33;;;;;;;6.62;100.00;100944.63;5224292;28;20022;-67
2022/11/28 04:25:23;;;;;;;8.52;7.70;;;;;;;6.61;100.00;100944.84;5224193;28;20497;-67
2022/11/28 04:27:58;;;;;;;7.15;6.35;;;;;;;6.61;100.00;100945.66;5207230;28;20511;-67
2022/11/28 04:30:28;;;;;;;7.30;6.80;;;;;;;6.62;100.00;100943.81;5207259;28;20033;-69
2022/11/28 04:33:04;;;;;;;17.10;7.80;;;;;;;6.62;100.00;100941.13;5207639;28;20080;-67
2022/11/28 04:35:49;;;;;;;6.65;6.25;;;;;;;6.63;100.00;100948.94;5224145;28;20028;-67
2022/11/28 04:38:23;;;;;;;7.32;6.93;;;;;;;6.63;100.00;100940.91;5207006;28;20047;-67
2022/11/28 04:41:23;;;;;;;7.57;7.13;;;;;;;6.64;100.00;100937.13;5223606;28;20057;-68
2022/11/28 04:43:59;;;;;;;7.55;7.13;;;;;;;6.64;100.00;100931.78;5206519;28;20041;-67
2022/11/28 04:46:37;;;;;;;6.80;6.30;;;;;;;6.63;100.00;100934.72;5207142;28;20022;-68
2022/11/28 04:49:08;;;;;;;6.95;6.57;;;;;;;6.65;100.00;100936.09;5206915;28;20408;-67
2022/11/28 04:51:43;;;;;;;7.32;6.82;;;;;;;6.66;100.00;100943.09;5206453;28;20380;-67
2022/11/28 04:54:21;;;;;;;7.55;7.00;;;;;;;6.66;100.00;100942.28;5208176;28;20119;-67
2022/11/28 04:56:59;;;;;;;7.85;7.15;;;;;;;6.65;100.00;100936.09;5208000;28;20026;-67
2022/11/28 04:59:31;;;;;;;7.10;6.57;;;;;;;6.67;100.00;100949.28;5206703;28;20477;-67
2022/11/28 05:02:03;;;;;;;6.85;6.40;;;;;;;6.67;100.00;100947.41;5206304;28;20018;-67
2022/11/28 05:04:35;;;;;;;7.30;6.82;;;;;;;6.68;100.00;100950.91;5207815;28;20117;-68
2022/11/28 05:07:07;;;;;;;7.78;7.22;;;;;;;6.68;100.00;100951.75;5223230;28;20124;-67
2022/11/28 05:09:37;;;;;;;7.32;6.82;;;;;;;6.70;100.00;100959.56;5206344;28;20029;-67
2022/11/28 05:12:08;;;;;;;8.20;7.70;;;;;;;6.69;100.00;100953.38;5206371;28;20499;-68
2022/11/28 05:14:39;;;;;;;7.35;6.72;;;;;;;6.69;100.00;100955.25;5206418;28;20029;-68
2022/11/28 05:17:12;;;;;;;7.53;6.95;;;;;;;6.70;100.00;100960.38;5206363;28;20116;-67
2022/11/28 05:19:42;;;;;;;8.10;7.60;;;;;;;6.70;100.00;100954.19;5206013;28;20021;-67
2022/11/28 05:22:13;;;;;;;7.70;7.20;;;;;;;6.69;100.00;100961.44;5207163;28;20416;-67
2022/11/28 05:24:43;;;;;;;8.02;7.38;;;;;;;6.68;100.00;100956.28;5206408;28;20024;-67
2022/11/28 05:27:13;;;;;;;8.90;8.23;;;;;;;6.71;100.00;100961.19;5206228;28;20052;-67
2022/11/28 05:29:45;;;;;;;8.27;7.78;;;;;;;6.72;100.00;100957.47;5205227;28;20022;-67
2022/11/28 05:32:16;;;;;;;7.35;6.93;;;;;;;6.72;100.00;100947.56;5222544;28;20021;-67
2022/11/28 05:34:46;;;;;;;8.10;7.60;;;;;;;6.71;100.00;100951.28;5222297;28;20044;-67
2022/11/28 05:37:17;;;;;;;7.95;7.22;;;;;;;6.72;100.00;100958.28;5222561;28;20075;-68
2022/11/28 05:39:47;;;;;;;7.38;6.82;;;;;;;6.73;100.00;100954.56;5222204;28;20503;-67
2022/11/28 05:42:17;;;;;;;6.47;6.07;;;;;;;6.72;100.00;100952.94;5207297;28;20493;-67
2022/11/28 05:44:48;;;;;;;9.35;8.75;;;;;;;6.74;100.00;100958.06;5222429;28;20079;-67
2022/11/28 05:47:18;;;;;;;9.05;8.18;;;;;;;6.63;100.00;100943.59;5222447;28;20029;-67
2022/11/28 05:49:49;;;;;;;9.35;8.65;;;;;;;6.74;100.00;100961.56;5217277;28;20117;-67
2022/11/28 05:52:19;;;;;;;11.27;10.10;;;;;;;6.58;100.00;100932.72;5209227;28;20445;-67
2022/11/28 05:54:50;;;;;;;9.60;9.00;;;;;;;6.75;100.00;100955.16;5201554;28;20477;-67
2022/11/28 05:57:20;;;;;;;9.55;8.85;;;;;;;6.75;100.00;100963.22;5184853;28;20033;-67
2022/11/28 05:59:51;;;;;;;8.48;7.78;;;;;;;6.76;100.00;100954.09;5201029;28;20488;-68
2022/11/28 06:02:21;;;;;;;8.98;8.35;;;;;;;6.57;100.00;100927.56;5200932;28;20207;-68
2022/11/28 06:04:52;;;;;;;9.60;8.98;;;;;;;6.78;100.00;100961.94;5201282;28;20033;-68
2022/11/28 06:07:22;;;;;;;8.00;7.57;;;;;;;6.77;100.00;100960.28;5185127;28;20494;-68
2022/11/28 06:09:52;;;;;;;10.05;9.20;;;;;;;6.78;100.00;100962.75;5184585;28;20018;-68
2022/11/28 06:12:23;;;;;;;8.82;8.10;;;;;;;6.80;100.00;100959.03;5200930;28;20018;-68
2022/11/28 06:14:53;;;;;;;8.30;7.72;;;;;;;6.72;100.00;100949.41;5184700;28;20041;-67
2022/11/28 06:17:24;;;;;;;10.30;9.50;;;;;;;6.81;100.00;100961.47;5201287;28;20022;-68
2022/11/28 06:19:54;;;;;;;8.77;8.20;;;;;;;6.81;100.00;100966.03;5184280;28;20068;-68
2022/11/28 06:22:24;;;;;;;11.43;10.60;;;;;;;6.83;100.00;100961.25;5183953;28;20033;-68
2022/11/28 06:24:55;;;;;;;8.98;8.48;;;;;;;6.66;100.00;100944.97;5199258;28;20501;-67
2022/11/28 06:27:25;;;;;;;10.00;9.27;;;;;;;6.83;100.00;100975.50;5197497;28;20406;-68
2022/11/28 06:29:56;;;;;;;9.23;8.15;;;;;;;6.84;100.00;100966.41;5185515;28;20036;-69
2022/11/28 06:32:26;;;;;;;11.07;9.95;;;;;;;6.84;100.00;100971.75;5200054;28;20030;-68
2022/11/28 06:34:57;;;;;;;10.93;9.75;;;;;;;6.76;100.00;100970.22;5198742;28;20061;-67
2022/11/28 06:37:27;;;;;;;12.18;11.27;;;;;;;6.72;100.00;100963.66;5184224;28;20030;-68
2022/11/28 06:39:58;;;;;;;10.35;9.60;;;;;;;6.86;100.00;100984.97;5200103;28;20030;-68
2022/11/28 06:42:28;;;;;;;9.20;8.60;;;;;;;6.87;100.00;100979.38;5216402;23;20032;-67
2022/11/28 06:44:59;;;;;;;40.80;38.60;;;;;;;6.89;100.00;100997.94;5221931;28;20045;-67
2022/11/28 06:48:07;;;;;;;14.02;12.45;;;;;;;6.90;100.00;100991.50;5221762;28;20036;-67
2022/11/28 06:50:37;;;;;;;12.98;11.93;;;;;;;6.90;100.00;100986.16;5205017;28;20025;-67
2022/11/28 06:53:07;;;;;;;14.57;13.45;;;;;;;6.91;100.00;100998.53;5221866;28;20428;-67
2022/11/28 06:55:38;;;;;;;14.15;13.02;;;;;;;6.91;100.00;100993.16;5206568;28;20380;-71
2022/11/28 06:58:09;;;;;;;13.20;12.13;;;;;;;6.92;100.00;100994.78;5206298;28;20511;-67
2022/11/28 07:00:44;;;;;;;15.00;13.50;;;;;;;6.94;100.00;101003.41;5205170;28;20481;-69
2022/11/28 07:03:15;;;;;;;13.00;11.90;;;;;;;6.94;100.00;100998.03;5205472;28;20084;-68
2022/11/28 07:05:45;;;;;;;15.95;14.63;;;;;;;6.96;100.00;101001.31;5205190;28;20444;-67
2022/11/28 07:08:16;;;;;;;14.27;13.23;;;;;;;6.99;100.00;100995.50;5205732;28;20118;-69
2022/11/28 07:10:46;;;;;;;14.27;13.18;;;;;;;6.88;100.00;100988.25;5205994;28;20036;-67
2022/11/28 07:13:17;;;;;;;15.65;14.40;;;;;;;7.00;100.00;101007.88;5222799;28;20086;-66
2022/11/28 07:15:49;;;;;;;15.77;13.50;;;;;;;6.98;100.00;101009.97;5221650;28;20034;-67
2022/11/28 07:18:19;;;;;;;15.75;14.60;;;;;;;7.00;100.00;101005.19;5212272;28;20033;-67
2022/11/28 07:20:49;;;;;;;18.60;17.20;;;;;;;7.02;100.00;101019.19;5220727;28;20128;-67
2022/11/28 07:23:20;;;;;;;15.52;13.98;;;;;;;7.00;100.00;101008.69;5204247;28;20036;-66
2022/11/28 07:25:50;;;;;;;15.35;14.07;;;;;;;6.85;100.00;100983.31;5221062;28;20025;-66
2022/11/28 07:28:21;;;;;;;18.25;16.75;;;;;;;7.01;100.00;101012.19;5204036;28;20401;-67
2022/11/28 07:31:00;;;;;;;18.65;17.05;;;;;;;6.67;100.00;100951.97;5220028;28;20432;-67
2022/11/28 07:33:31;;;;;;;19.17;17.42;;;;;;;7.07;100.00;101017.47;5219000;28;20108;-67
2022/11/28 07:36:04;;;;;;;18.20;16.60;;;;;;;7.07;100.00;101014.78;5221054;28;20139;-67
2022/11/28 07:38:35;;;;;;;21.52;18.58;;;;;;;7.09;100.00;101012.69;5204756;28;20237;-67
2022/11/28 07:41:08;;;;;;;16.98;15.55;;;;;;;7.11;100.00;101018.66;5201538;28;20034;-67
2022/11/28 07:43:41;;;;;;;20.45;18.65;;;;;;;7.13;100.00;101021.13;5205551;28;20590;-66
2022/11/28 07:46:15;;;;;;;21.33;19.20;;;;;;;7.10;100.00;101010.81;5220872;28;20033;-67
2022/11/28 07:48:47;;;;;;;22.98;21.17;;;;;;;7.17;100.00;101021.47;5203927;28;20025;-67
2022/11/28 07:51:21;;;;;;;23.05;21.13;;;;;;;7.18;100.00;101020.44;5203497;28;20025;-67
2022/11/28 07:53:52;;;;;;;22.42;20.42;;;;;;;7.20;100.00;101024.53;5220796;28;20108;-66
2022/11/28 07:56:25;;;;;;;22.17;20.33;;;;;;;7.22;100.00;101026.97;5204197;28;20037;-66
2022/11/28 07:58:55;;;;;;;22.13;19.88;;;;;;;7.16;100.00;101026.03;5220889;28;20047;-66
2022/11/28 08:01:29;;;;;;;21.77;20.05;;;;;;;7.25;100.00;101031.88;5203558;28;20029;-66
2022/11/28 08:04:04;;;;;;;22.42;20.45;;;;;;;7.26;100.00;101030.81;5203911;28;20060;-65
2022/11/28 08:06:38;;;;;;;23.77;21.70;;;;;;;7.27;100.00;101040.53;5204983;28;20504;-66
2022/11/28 08:09:10;;;;;;;21.88;20.17;;;;;;;7.29;100.00;101044.63;5203882;28;20041;-66
2022/11/28 08:11:41;;;;;;;21.90;20.10;;;;;;;7.15;100.00;101020.88;5203239;28;20079;-66
2022/11/28 08:14:13;;;;;;;20.67;18.88;;;;;;;7.34;100.00;101041.25;5203703;28;20107;-67
2022/11/28 08:16:46;;;;;;;20.73;18.88;;;;;;;7.34;100.00;101036.69;5220058;28;20028;-67
2022/11/28 08:19:17;;;;;;;21.40;19.60;;;;;;;7.37;100.00;101049.66;5203776;28;20116;-67
2022/11/28 08:21:48;;;;;;;20.80;19.08;;;;;;;7.39;100.00;101044.88;5219349;28;20033;-67
2022/11/28 08:24:18;;;;;;;23.00;21.05;;;;;;;7.40;100.00;101046.53;5203441;28;20036;-67
2022/11/28 08:26:49;;;;;;;23.55;21.42;;;;;;;7.44;100.00;101045.03;5203482;28;20505;-68
2022/11/28 08:29:19;;;;;;;22.63;20.80;;;;;;;7.31;100.00;101014.84;5220055;28;20026;-67
2022/11/28 08:35:17;;;;;;;22.58;20.55;;;;;;;7.54;100.00;101049.81;5205766;28;20034;-69
2022/11/28 08:37:47;;;;;;;23.38;21.17;;;;;;;7.57;100.00;101049.34;5204707;28;20481;-67
2022/11/28 08:40:18;;;;;;;22.30;20.38;;;;;;;7.60;100.00;101048.06;5220500;28;20052;-68
2022/11/28 08:42:48;;;;;;;21.05;19.33;;;;;;;7.62;100.00;101045.97;5204375;28;20144;-68
2022/11/28 08:45:19;;;;;;;20.77;19.08;;;;;;;7.63;100.00;101043.06;5204493;28;20033;-68
2022/11/28 08:47:49;;;;;;;21.73;19.98;;;;;;;7.71;100.00;101047.28;5204584;28;20022;-67
2022/11/28 08:50:19;;;;;;;20.20;18.50;;;;;;;7.74;100.00;101046.81;5220950;28;20175;-67
2022/11/28 08:52:50;;;;;;;22.73;20.58;;;;;;;7.72;100.00;101040.84;5204825;28;20014;-67
2022/11/28 08:55:20;;;;;;;22.83;21.08;;;;;;;7.79;100.00;101049.63;5204869;28;20021;-67
2022/11/28 08:57:51;;;;;;;22.02;20.08;;;;;;;7.84;100.00;101051.59;5205737;28;20025;-67
2022/11/28 09:00:21;;;;;;;20.02;18.23;;;;;;;7.75;100.00;101027.75;5204340;28;20059;-67
2022/11/28 09:02:52;;;;;;;21.13;19.50;;;;;;;7.88;100.00;101055.47;5204383;28;20063;-67
2022/11/28 09:05:22;;;;;;;21.77;19.88;;;;;;;7.91;100.00;101066.56;5207738;28;20450;-67
2022/11/28 09:07:56;;;;;;;22.60;20.60;;;;;;;7.74;100.00;101034.19;5224566;28;20087;-68
2022/11/28 09:10:27;;;;;;;22.02;19.98;;;;;;;7.94;100.00;101066.09;5207846;28;20025;-67
2022/11/28 09:12:57;;;;;;;20.77;18.58;;;;;;;7.97;100.00;101067.50;5209225;28;20022;-67
2022/11/28 09:15:27;;;;;;;18.80;17.33;;;;;;;7.98;100.00;101063.78;5208019;28;20378;-67
2022/11/28 09:17:58;;;;;;;20.73;18.83;;;;;;;7.96;100.00;101068.56;5224809;28;20036;-68
2022/11/28 09:20:29;;;;;;;20.50;18.77;;;;;;;7.97;100.00;101062.94;5207809;28;20520;-68
2022/11/28 09:23:00;;;;;;;20.30;18.70;;;;;;;8.03;100.00;101066.59;5207950;28;20389;-67
2022/11/28 09:25:30;;;;;;;19.92;18.20;;;;;;;8.11;100.00;101061.66;5208322;28;20471;-67
2022/11/28 09:28:01;;;;;;;20.30;18.02;;;;;;;8.23;100.00;101047.38;5224880;28;20079;-68
2022/11/28 09:30:32;;;;;;;19.33;17.70;;;;;;;8.31;100.00;101047.03;5207639;28;20057;-68
2022/11/28 09:33:03;;;;;;;20.67;18.65;;;;;;;8.34;100.00;101055.47;5208366;28;20021;-67
2022/11/28 09:35:37;;;;;;;21.05;19.08;;;;;;;8.40;100.00;101061.75;5224841;28;20339;-68
2022/11/28 09:38:07;;;;;;;21.73;19.63;;;;;;;8.42;100.00;101063.16;5224356;28;20080;-67
2022/11/28 09:40:42;;;;;;;21.35;19.13;;;;;;;8.31;100.00;101028.19;5207794;28;20034;-67
2022/11/28 09:43:19;;;;;;;22.17;18.05;;;;;;;8.55;100.00;101063.97;5207893;28;20034;-68
2022/11/28 09:45:52;;;;;;;19.52;17.73;;;;;;;8.54;100.00;101068.53;5191421;28;20065;-69
2022/11/28 09:48:35;;;;;;;20.20;17.27;;;;;;;8.56;100.00;101069.13;5207716;28;20060;-68
2022/11/28 09:51:24;;;;;;;19.70;17.98;;;;;;;8.60;100.00;101086.44;5207673;28;20385;-68
2022/11/28 09:54:30;;;;;;;18.30;16.70;;;;;;;8.66;100.00;101082.78;5207174;28;20116;-66
2022/11/28 09:57:07;;;;;;;18.88;17.13;;;;;;;8.79;100.00;101093.28;5194585;28;20065;-66
2022/11/28 09:59:38;;;;;;;20.00;18.00;;;;;;;8.93;100.00;101095.72;5224557;28;20068;-66
2022/11/28 10:02:27;;;;;;;19.00;17.35;;;;;;;9.06;100.00;101088.16;5207489;28;20026;-66
2022/11/28 10:05:11;;;;;;;19.33;17.35;;;;;;;9.10;100.00;101085.81;5227274;28;20029;-66
2022/11/28 10:07:56;;;;;;;23.00;19.40;;;;;;;9.13;100.00;101088.03;5202236;28;20033;-67
2022/11/28 10:10:32;;;;;;;18.17;16.70;;;;;;;9.16;100.00;101087.53;5223738;28;20036;-66
2022/11/28 10:13:08;;;;;;;18.35;15.30;;;;;;;9.16;100.00;101092.13;5224435;28;20393;-68
2022/11/28 10:15:50;;;;;;;17.45;15.85;;;;;;;9.14;100.00;101086.97;5223527;28;20064;-68
2022/11/28 10:18:45;;;;;;;15.90;14.80;;;;;;;9.08;100.00;101086.03;5209417;28;20032;-68
2022/11/28 10:21:41;;;;;;;18.45;16.98;;;;;;;9.06;100.00;101081.94;5223278;28;20025;-68
2022/11/28 10:24:20;;;;;;;19.02;16.80;;;;;;;8.97;100.00;101086.06;5223367;28;20114;-67
2022/11/28 10:26:57;;;;;;;15.23;13.77;;;;;;;8.96;100.00;101092.53;5205358;28;20038;-67
2022/11/28 10:29:46;;;;;;;17.45;15.55;;;;;;;8.94;100.00;101098.19;5206079;28;20018;-67
2022/11/28 10:32:23;;;;;;;16.75;15.20;;;;;;;8.92;100.00;101097.59;5223374;28;20120;-67
2022/11/28 10:35:01;;;;;;;17.15;15.48;;;;;;;8.88;100.00;101096.44;5206515;28;20515;-67
2022/11/28 10:37:35;;;;;;;16.88;14.30;;;;;;;8.91;100.00;101098.66;5223424;28;20032;-67
2022/11/28 10:40:25;;;;;;;19.73;16.95;;;;;;;8.92;100.00;101099.47;5222680;28;20497;-67
2022/11/28 10:43:02;;;;;;;18.25;16.77;;;;;;;8.91;100.00;101095.13;5223043;28;20026;-67
2022/11/28 10:45:50;;;;;;;16.35;14.93;;;;;;;8.90;100.00;101094.31;5206436;28;20026;-67
2022/11/28 10:48:39;;;;;;;25.65;17.77;;;;;;;8.94;100.00;101091.97;5223778;28;20083;-67
2022/11/28 10:51:28;;;;;;;19.30;17.67;;;;;;;8.99;100.00;101089.34;5223158;28;20076;-68
2022/11/28 10:54:16;;;;;;;18.80;17.17;;;;;;;9.04;100.00;101078.69;5223563;28;20030;-67
2022/11/28 10:56:53;;;;;;;20.20;18.23;;;;;;;9.09;100.00;101076.91;5222637;28;20086;-68
2022/11/28 10:59:43;;;;;;;16.98;15.27;;;;;;;9.10;100.00;101069.66;5223209;28;20036;-68
2022/11/28 11:02:34;;;;;;;20.90;17.33;;;;;;;9.18;100.00;101084.63;5223641;28;20064;-68
2022/11/28 11:05:10;;;;;;;30.13;17.85;;;;;;;9.20;100.00;101080.63;5208985;28;20029;-68
2022/11/28 11:08:02;;;;;;;16.30;14.77;;;;;;;9.27;100.00;101086.66;5224322;28;20397;-70
2022/11/28 11:10:41;;;;;;;19.00;17.05;;;;;;;9.35;100.00;101082.75;5223193;28;20049;-69
2022/11/28 11:13:18;;;;;;;24.65;17.55;;;;;;;9.34;100.00;101081.13;5207107;28;20059;-69
2022/11/28 11:15:57;;;;;;;33.15;18.15;;;;;;;9.17;100.00;101050.66;5223796;28;20060;-69
2022/11/28 11:18:31;;;;;;;18.85;16.30;;;;;;;9.33;100.00;101085.69;5223092;28;20021;-69
2022/11/28 11:21:08;;;;;;;31.02;16.42;;;;;;;9.37;100.00;101084.16;5206491;28;20029;-68
2022/11/28 11:23:38;;;;;;;22.40;17.83;;;;;;;9.41;100.00;101085.31;5223052;28;20124;-68
2022/11/28 11:26:24;;;;;;;23.92;16.27;;;;;;;9.46;100.00;101080.00;5223071;28;20529;-69
2022/11/28 11:28:55;;;;;;;22.23;17.17;;;;;;;9.48;100.00;101083.28;5206161;28;20485;-69
2022/11/28 11:31:31;;;;;;;20.08;14.63;;;;;;;9.48;100.00;101080.59;5207728;28;20028;-69
2022/11/28 11:34:15;;;;;;;26.27;18.27;;;;;;;9.45;100.00;101085.66;5206835;28;20037;-69
2022/11/28 11:36:46;;;;;;;17.20;15.45;;;;;;;9.44;100.00;101087.53;5208522;28;20504;-69
2022/11/28 11:39:24;;;;;;;20.60;13.95;;;;;;;9.44;100.00;101081.31;5207949;28;20060;-68
2022/11/28 11:42:00;;;;;;;19.38;16.95;;;;;;;9.41;100.00;101077.22;5206863;28;20026;-69
2022/11/28 11:44:33;;;;;;;17.83;16.10;;;;;;;9.42;100.00;101081.56;5208142;28;20033;-70
2022/11/28 11:47:06;;;;;;;17.58;14.07;;;;;;;9.47;100.00;101081.66;5207418;28;20036;-68
2022/11/28 11:49:42;;;;;;;16.80;14.70;;;;;;;9.51;100.00;101073.09;5223672;28;20093;-70
2022/11/28 11:52:12;;;;;;;18.48;13.27;;;;;;;9.57;100.00;101072.09;5223716;28;20029;-69
2022/11/28 11:57:59;;;;;;;14.85;13.30;;;;;;;9.68;100.00;101073.91;5431764;23;20108;-79
2022/11/28 12:00:37;;;;;;;16.67;12.73;;;;;;;9.50;100.00;101033.72;5204431;28;20033;-81
2022/11/28 12:03:24;;;;;;;15.15;13.65;;;;;;;9.87;100.00;101077.97;5195151;28;20025;-84